Terminal Aerodrome Forecast
Issued by NWS Newport/Morehead City, NC

Home | Current Version | Previous Version | Text Only | Print | Product List | Glossary Off
Versions: 1 2 3 4 5 6 7 8 9 10 11 12 13 14 15 16 17 18 19 20 21 22 23 24 25 26

000
FTUS42 KMHX 190140 AAB
TAFEWN
TAF AMD
KEWN 190140Z 1902/1924 VRB03KT P6SM BKN025 BKN100
     FM190300 VRB03KT P6SM SCT050 BKN100
     FM191400 09010KT P6SM VCSH SCT025 BKN040
     FM191700 14010KT 4SM -SHRA OVC025=

USA.gov is the U.S. government's official web portal to all federal, state and local government web resources and services.